Scout — WDF8049 — position and weather

sailwx.info

Track history (hours):
 
Tides and Currents Weather Stations Pressure Air Temp Water Temp Dewpoint Dewpoint Depression Visibility Wind Speed Wind Dir Waves Ship Positions

Scout

Owner: Sandbo, Scott E, Portland, OR. More information available from US FCC via Universal Licensing System and Coast Guard Vessel Documentation Center.

Last reported at 2015-May-25 17:33 UTC. Time now 2015-May-25 23:41 UTC.
Position N 48°22' W 123°23'.

Length 15 m.

Type: Pleasure craft. MMSI: 367490850.

Date/timePositionNaut miles runAvg speedWind from/ knotsBaromVisibWave heightAir tempDewpointWater temp
2015-May-25 17:33N 48°22' W 123°23'8424.5
2015-May-25 14:08N 48°56' W 125°19'7 0.3
2015-May-24 18:33N 48°55' W 125°29'4 3.5
2015-May-24 17:33N 48°57' W 125°33'0 0.0
2015-May-24 16:33N 48°57' W 125°33'0 0.0
2015-May-24 15:33N 48°57' W 125°33'0 0.0
2015-May-24 14:33N 48°57' W 125°33'0 0.0
2015-May-24 13:33N 48°57' W 125°33'0 0.0
2015-May-24 12:33N 48°57' W 125°33'0 0.0
2015-May-24 11:30N 48°57' W 125°33'0 0.0
2015-May-24 10:33N 48°57' W 125°33'0 0.0
2015-May-24 09:33N 48°57' W 125°33'0 0.0
2015-May-24 08:33N 48°57' W 125°33'0 0.0
2015-May-24 07:33N 48°57' W 125°33'0 0.0
2015-May-24 06:33N 48°57' W 125°33'0 0.0
2015-May-24 05:33N 48°57' W 125°33'0 0.0
2015-May-24 04:33N 48°57' W 125°33'0 0.0
2015-May-24 03:33N 48°57' W 125°33'0 0.0
2015-May-24 02:33N 48°57' W 125°33'0 0.0
2015-May-24 01:33N 48°57' W 125°33'0 0.0
2015-May-24 00:33N 48°57' W 125°33'0 0.0
2015-May-23 23:33N 48°57' W 125°33'0 0.0
2015-May-23 22:33N 48°57' W 125°33'0 0.0
2015-May-23 21:33N 48°57' W 125°33'0 0.0
2015-May-23 20:33N 48°57' W 125°33'0 0.0
2015-May-23 19:33N 48°57' W 125°33'0 0.0
2015-May-23 18:33N 48°57' W 125°33'0 0.0
2015-May-23 17:33N 48°57' W 125°33'0 0.0
2015-May-23 16:33N 48°57' W 125°33'0 0.0
2015-May-23 15:33N 48°57' W 125°33'0 0.0
2015-May-23 14:33N 48°57' W 125°33'0 0.0
2015-May-23 13:33N 48°57' W 125°33'0 0.0
2015-May-23 12:33N 48°57' W 125°33'0 0.0
2015-May-23 11:33N 48°57' W 125°33'0 0.0
2015-May-23 10:33N 48°57' W 125°33'0 0.0
2015-May-23 09:33N 48°57' W 125°33'0 0.0
2015-May-23 08:33N 48°57' W 125°33'0 0.0
2015-May-23 07:33N 48°57' W 125°33'0 0.0
2015-May-23 06:33N 48°57' W 125°33'0 0.0
2015-May-23 05:33N 48°57' W 125°33'0 0.0
2015-May-23 04:33N 48°57' W 125°33'0 0.0
2015-May-23 03:33N 48°57' W 125°33'0 0.0
2015-May-23 02:33N 48°57' W 125°33'0 0.0
2015-May-23 01:33N 48°57' W 125°33'1 0.6
2015-May-23 00:34N 48°56' W 125°33'0 0.0
2015-May-22 23:33N 48°56' W 125°33'3614.6
2015-May-22 21:06N 48°34' W 124°50'914.7
2015-May-22 20:31N 48°28' W 124°41'6 0.3
2015-May-21 23:12N 48°22' W 124°37'0 0.1
2015-May-21 22:33N 48°22' W 124°37'0 0.1
2015-May-21 21:31N 48°22' W 124°37'7 6.3
2015-May-21 20:26N 48°20' W 124°46'9416.0
2015-May-21 14:33N 46°47' W 124°26'1414.2
2015-May-21 13:33N 46°33' W 124°20'1514.6
2015-May-21 12:32N 46°19' W 124°14'8 8.6
2015-May-21 11:33N 46°15' W 124°03'9 8.8
2015-May-21 10:33N 46°12' W 123°52'0 0.0
2015-May-20 23:33N 46°11' W 123°51'6 6.3
2015-May-20 22:33N 46°14' W 123°43'1211.8
2015-May-20 21:33N 46°15' W 123°26'1717.6
2015-May-20 20:33N 46°09' W 123°02'2221.5
2015-May-20 19:32N 45°49' W 122°48'122486.3
2015-May-20 05:21N 66°05' W 118°27'  
2015-May-17 23:26N 45°37' W 122°40'0 0.0
2015-May-17 22:26N 45°37' W 122°40'0 0.0
2015-May-17 21:29N 45°37' W 122°40'  
Track history (hours):
 
Tides and Currents Weather Stations Pressure Air Temp Water Temp Dewpoint Dewpoint Depression Visibility Wind Speed Wind Dir Waves Ship Positions

Scout

Owner: Sandbo, Scott E, Portland, OR. More information available from US FCC via Universal Licensing System and Coast Guard Vessel Documentation Center.

Last reported at 2015-May-25 17:33 UTC. Time now 2015-May-25 23:41 UTC.
Position N 48°22' W 123°23'.

Length 15 m.

Type: Pleasure craft. MMSI: 367490850.

Date/timePositionNaut miles runAvg speedWind from/ knotsBaromVisibWave heightAir tempDewpointWater temp
2015-May-25 17:33N 48°22' W 123°23'8424.5
2015-May-25 14:08N 48°56' W 125°19'7 0.3
2015-May-24 18:33N 48°55' W 125°29'4 3.5
2015-May-24 17:33N 48°57' W 125°33'0 0.0
2015-May-24 16:33N 48°57' W 125°33'0 0.0
2015-May-24 15:33N 48°57' W 125°33'0 0.0
2015-May-24 14:33N 48°57' W 125°33'0 0.0
2015-May-24 13:33N 48°57' W 125°33'0 0.0
2015-May-24 12:33N 48°57' W 125°33'0 0.0
2015-May-24 11:30N 48°57' W 125°33'0 0.0
2015-May-24 10:33N 48°57' W 125°33'0 0.0
2015-May-24 09:33N 48°57' W 125°33'0 0.0
2015-May-24 08:33N 48°57' W 125°33'0 0.0
2015-May-24 07:33N 48°57' W 125°33'0 0.0
2015-May-24 06:33N 48°57' W 125°33'0 0.0
2015-May-24 05:33N 48°57' W 125°33'0 0.0
2015-May-24 04:33N 48°57' W 125°33'0 0.0
2015-May-24 03:33N 48°57' W 125°33'0 0.0
2015-May-24 02:33N 48°57' W 125°33'0 0.0
2015-May-24 01:33N 48°57' W 125°33'0 0.0
2015-May-24 00:33N 48°57' W 125°33'0 0.0
2015-May-23 23:33N 48°57' W 125°33'0 0.0
2015-May-23 22:33N 48°57' W 125°33'0 0.0
2015-May-23 21:33N 48°57' W 125°33'0 0.0
2015-May-23 20:33N 48°57' W 125°33'0 0.0
2015-May-23 19:33N 48°57' W 125°33'0 0.0
2015-May-23 18:33N 48°57' W 125°33'0 0.0
2015-May-23 17:33N 48°57' W 125°33'0 0.0
2015-May-23 16:33N 48°57' W 125°33'0 0.0
2015-May-23 15:33N 48°57' W 125°33'0 0.0
2015-May-23 14:33N 48°57' W 125°33'0 0.0
2015-May-23 13:33N 48°57' W 125°33'0 0.0
2015-May-23 12:33N 48°57' W 125°33'0 0.0
2015-May-23 11:33N 48°57' W 125°33'0 0.0
2015-May-23 10:33N 48°57' W 125°33'0 0.0
2015-May-23 09:33N 48°57' W 125°33'0 0.0
2015-May-23 08:33N 48°57' W 125°33'0 0.0
2015-May-23 07:33N 48°57' W 125°33'0 0.0
2015-May-23 06:33N 48°57' W 125°33'0 0.0
2015-May-23 05:33N 48°57' W 125°33'0 0.0
2015-May-23 04:33N 48°57' W 125°33'0 0.0
2015-May-23 03:33N 48°57' W 125°33'0 0.0
2015-May-23 02:33N 48°57' W 125°33'0 0.0
2015-May-23 01:33N 48°57' W 125°33'1 0.6
2015-May-23 00:34N 48°56' W 125°33'0 0.0
2015-May-22 23:33N 48°56' W 125°33'3614.6
2015-May-22 21:06N 48°34' W 124°50'914.7
2015-May-22 20:31N 48°28' W 124°41'6 0.3
2015-May-21 23:12N 48°22' W 124°37'0 0.1
2015-May-21 22:33N 48°22' W 124°37'0 0.1
2015-May-21 21:31N 48°22' W 124°37'7 6.3
2015-May-21 20:26N 48°20' W 124°46'9416.0
2015-May-21 14:33N 46°47' W 124°26'1414.2
2015-May-21 13:33N 46°33' W 124°20'1514.6
2015-May-21 12:32N 46°19' W 124°14'8 8.6
2015-May-21 11:33N 46°15' W 124°03'9 8.8
2015-May-21 10:33N 46°12' W 123°52'0 0.0
2015-May-20 23:33N 46°11' W 123°51'6 6.3
2015-May-20 22:33N 46°14' W 123°43'1211.8
2015-May-20 21:33N 46°15' W 123°26'1717.6
2015-May-20 20:33N 46°09' W 123°02'2221.5
2015-May-20 19:32N 45°49' W 122°48'122486.3
2015-May-20 05:21N 66°05' W 118°27'  
2015-May-17 23:26N 45°37' W 122°40'0 0.0
2015-May-17 22:26N 45°37' W 122°40'0 0.0
2015-May-17 21:29N 45°37' W 122°40'  

Dump ship's entire track history